Terminal Aerodrome Forecast
Issued by NWS

Home | Current Version | Previous Version | Text Only | Print | Product List | Glossary On
Versions: 1 2 3 4 5 6 7 8 9 10 11 12 13 14 15 16 17 18 19 20 21 22 23 24 25 26 27 28 29 30 31 32 33
144
FTUS45 KSLC 300545
TAFPVU
TAF
KPVU 300545Z 3006/3106 VRB04KT P6SM VCSH SCT050 BKN100
     FM302000 29010KT P6SM SCT100
     FM302200 30015G23KT P6SM SCT090
     FM310200 31010KT P6SM SCT100
      AMD LTD TO CLD VIS AND WIND=

USA.gov is the U.S. government's official web portal to all federal, state and local government web resources and services.